createdAt,value
2022-12-25T00:00:39.718Z,3.91
2022-12-25T00:03:13.100Z,3.97
2022-12-25T00:05:45.122Z,3.93
2022-12-25T00:08:15.415Z,3.92
2022-12-25T00:10:46.385Z,3.92
2022-12-25T00:13:17.546Z,3.92
2022-12-25T00:15:49.209Z,3.91
2022-12-25T00:18:33.377Z,3.93
2022-12-25T00:21:05.436Z,3.97
2022-12-25T00:23:37.106Z,3.99
2022-12-25T00:26:10.924Z,4.04
2022-12-25T00:28:44.361Z,4.10
2022-12-25T00:31:29.182Z,4.12
2022-12-25T00:34:02.972Z,4.14
2022-12-25T00:36:41.368Z,4.21
2022-12-25T00:39:20.759Z,4.16
2022-12-25T00:42:03.795Z,4.13
2022-12-25T00:44:35.270Z,4.13
2022-12-25T00:47:08.210Z,4.13
2022-12-25T00:49:41.072Z,4.12
2022-12-25T00:52:18.595Z,4.13
2022-12-25T00:54:53.335Z,4.13
2022-12-25T00:57:23.579Z,4.22
2022-12-25T00:59:53.655Z,4.24
2022-12-25T01:02:27.587Z,4.24
2022-12-25T01:05:01.089Z,4.25
2022-12-25T01:07:31.402Z,4.28
2022-12-25T01:10:14.930Z,4.28
2022-12-25T01:12:46.425Z,4.26
2022-12-25T01:15:19.232Z,4.22
2022-12-25T01:17:49.671Z,4.24
2022-12-25T01:20:24.028Z,4.26
2022-12-25T01:22:54.452Z,4.28
2022-12-25T01:25:25.579Z,4.28
2022-12-25T01:27:56.640Z,4.26
2022-12-25T01:30:28.365Z,4.27
2022-12-25T01:32:59.419Z,4.24
2022-12-25T01:35:33.260Z,4.23
2022-12-25T01:38:05.477Z,4.28
2022-12-25T01:40:37.719Z,4.29
2022-12-25T01:43:19.999Z,4.25
2022-12-25T01:45:52.787Z,4.26
2022-12-25T01:48:27.732Z,4.24
2022-12-25T01:51:04.914Z,4.23
2022-12-25T01:53:35.578Z,4.21
2022-12-25T01:56:14.735Z,4.26
2022-12-25T01:58:49.770Z,4.22
2022-12-25T02:01:22.430Z,4.17
2022-12-25T02:03:54.583Z,4.19
2022-12-25T02:06:32.307Z,4.17
2022-12-25T02:09:02.542Z,4.18
2022-12-25T02:11:47.331Z,4.21
2022-12-25T02:14:17.598Z,4.20
2022-12-25T02:16:56.922Z,4.22
2022-12-25T02:19:45.417Z,4.18
2022-12-25T02:22:34.103Z,4.16
2022-12-25T02:25:19.331Z,4.14
2022-12-25T02:28:08.968Z,4.17
2022-12-25T02:30:51.053Z,4.23
2022-12-25T02:33:44.056Z,4.40
2022-12-25T02:36:20.338Z,4.44
2022-12-25T02:39:11.548Z,4.46
2022-12-25T02:41:54.167Z,4.44
2022-12-25T02:44:43.091Z,4.39
2022-12-25T02:47:36.829Z,4.38
2022-12-25T02:50:22.825Z,4.42
2022-12-25T02:53:10.813Z,4.44
2022-12-25T02:55:56.797Z,4.34
2022-12-25T02:58:42.167Z,4.41
2022-12-25T03:01:34.050Z,4.36
2022-12-25T03:04:21.823Z,4.46
2022-12-25T03:07:07.715Z,4.49
2022-12-25T03:09:55.627Z,4.56
2022-12-25T03:12:41.101Z,4.51
2022-12-25T03:15:28.227Z,4.53
2022-12-25T03:18:08.205Z,4.54
2022-12-25T03:20:51.872Z,4.59
2022-12-25T03:23:41.847Z,4.60
2022-12-25T03:26:25.879Z,4.58
2022-12-25T03:29:00.701Z,4.66
2022-12-25T03:31:46.783Z,4.62
2022-12-25T03:34:47.650Z,4.58
2022-12-25T03:37:48.829Z,4.60
2022-12-25T03:40:42.966Z,4.55
2022-12-25T03:43:38.312Z,4.48
2022-12-25T03:46:26.534Z,4.47
2022-12-25T03:49:19.742Z,4.51
2022-12-25T03:52:07.933Z,4.55
2022-12-25T03:54:55.385Z,4.56
2022-12-25T03:57:38.836Z,4.62
2022-12-25T04:00:23.747Z,4.58
2022-12-25T04:03:07.922Z,4.56
2022-12-25T04:05:51.208Z,4.54
2022-12-25T04:08:38.869Z,4.50
2022-12-25T04:11:22.571Z,4.54
2022-12-25T04:14:05.895Z,4.54
2022-12-25T04:16:49.540Z,4.55
2022-12-25T04:19:32.854Z,4.56
2022-12-25T04:22:20.882Z,4.52
2022-12-25T04:25:06.596Z,4.53
2022-12-25T04:27:53.135Z,4.49
2022-12-25T04:30:39.340Z,4.46
2022-12-25T04:33:26.775Z,4.41
2022-12-25T04:36:13.236Z,4.42
2022-12-25T04:38:45.926Z,4.36
2022-12-25T04:41:20.222Z,4.31
2022-12-25T04:43:50.432Z,4.27
2022-12-25T04:46:21.728Z,4.29
2022-12-25T04:48:52.416Z,4.30
2022-12-25T04:51:24.340Z,4.30
2022-12-25T04:53:56.391Z,4.33
2022-12-25T04:56:45.371Z,4.41
2022-12-25T04:59:18.747Z,4.41
2022-12-25T05:01:51.907Z,4.45
2022-12-25T05:04:22.489Z,4.42
2022-12-25T05:06:53.486Z,4.38
2022-12-25T05:09:33.725Z,4.36
2022-12-25T05:12:09.729Z,4.39
2022-12-25T05:14:41.484Z,4.43
2022-12-25T05:17:12.461Z,4.46
2022-12-25T05:19:43.531Z,4.56
2022-12-25T05:22:14.429Z,4.63
2022-12-25T05:24:47.989Z,4.73
2022-12-25T05:27:24.176Z,4.82
2022-12-25T05:29:55.800Z,4.87
2022-12-25T05:32:31.308Z,4.80
2022-12-25T05:35:07.475Z,4.79
2022-12-25T05:37:46.224Z,4.82
2022-12-25T05:40:21.623Z,4.86
2022-12-25T05:42:55.228Z,4.86
2022-12-25T05:45:26.135Z,4.85
2022-12-25T05:47:56.480Z,4.81
2022-12-25T05:50:27.501Z,4.84
2022-12-25T05:53:13.333Z,5.00
2022-12-25T05:55:49.235Z,5.07
2022-12-25T05:58:25.322Z,5.01
2022-12-25T06:00:56.115Z,5.02
2022-12-25T06:03:28.129Z,5.01
2022-12-25T06:05:58.502Z,4.98
2022-12-25T06:08:29.791Z,4.95
2022-12-25T06:11:00.744Z,4.94
2022-12-25T06:13:37.226Z,4.90
2022-12-25T06:16:08.762Z,4.88
2022-12-25T06:18:40.424Z,4.82
2022-12-25T06:21:12.426Z,4.79
2022-12-25T06:23:44.858Z,4.77
2022-12-25T06:26:18.033Z,4.73
2022-12-25T06:28:51.249Z,4.73
2022-12-25T06:31:24.372Z,4.72
2022-12-25T06:33:54.663Z,4.71
2022-12-25T06:36:27.809Z,4.68
2022-12-25T06:38:59.862Z,4.71
2022-12-25T06:41:32.480Z,4.74
2022-12-25T06:44:11.177Z,4.72
2022-12-25T06:46:50.122Z,4.83
2022-12-25T06:49:20.447Z,4.84
2022-12-25T06:51:51.561Z,4.86
2022-12-25T06:54:22.448Z,4.89
2022-12-25T06:56:53.747Z,4.95
2022-12-25T06:59:27.157Z,4.99
2022-12-25T07:02:03.152Z,5.01
2022-12-25T07:04:40.339Z,5.07
2022-12-25T07:07:11.845Z,5.12
2022-12-25T07:09:48.482Z,5.12
2022-12-25T07:12:21.012Z,5.13
2022-12-25T07:14:59.821Z,5.18
2022-12-25T07:17:31.963Z,5.17
2022-12-25T07:20:04.724Z,5.18
2022-12-25T07:22:38.684Z,5.18
2022-12-25T07:25:11.024Z,5.23
2022-12-25T07:27:46.522Z,5.27
2022-12-25T07:30:32.659Z,5.29
2022-12-25T07:33:05.290Z,5.31
2022-12-25T07:35:35.556Z,5.37
2022-12-25T07:38:06.505Z,5.38
2022-12-25T07:40:38.075Z,5.44
2022-12-25T07:43:09.143Z,5.50
2022-12-25T07:45:47.711Z,5.56
2022-12-25T07:48:23.419Z,5.61
2022-12-25T07:51:02.150Z,5.62
2022-12-25T07:53:42.541Z,5.65
2022-12-25T07:56:16.261Z,5.68
2022-12-25T07:58:51.577Z,5.69
2022-12-25T08:01:28.042Z,5.72
2022-12-25T08:04:06.130Z,5.79
2022-12-25T08:06:38.332Z,5.88
2022-12-25T08:09:14.247Z,5.94
2022-12-25T08:11:56.438Z,6.00
2022-12-25T08:14:37.715Z,6.09
2022-12-25T08:17:11.160Z,6.14
2022-12-25T08:19:41.727Z,6.23
2022-12-25T08:22:17.538Z,6.33
2022-12-25T08:24:51.144Z,6.42
2022-12-25T08:27:23.509Z,6.50
2022-12-25T08:29:56.759Z,6.58
2022-12-25T08:32:45.108Z,6.64
2022-12-25T08:35:16.529Z,6.76
2022-12-25T08:37:47.507Z,6.81
2022-12-25T08:40:19.359Z,6.88
2022-12-25T08:42:49.481Z,6.96
2022-12-25T08:45:22.277Z,7.05
2022-12-25T08:48:02.382Z,7.10
2022-12-25T08:50:37.418Z,7.13
2022-12-25T08:53:14.907Z,7.18
2022-12-25T08:55:54.763Z,7.19
2022-12-25T08:58:25.558Z,7.23
2022-12-25T09:01:05.967Z,7.23
2022-12-25T09:03:42.092Z,7.28
2022-12-25T09:06:15.270Z,7.27
2022-12-25T09:08:50.054Z,7.27
2022-12-25T09:11:24.587Z,7.30
2022-12-25T09:13:56.901Z,7.43
2022-12-25T09:16:27.586Z,7.55
2022-12-25T09:19:10.029Z,7.77
2022-12-25T09:21:40.535Z,7.91
2022-12-25T09:24:17.024Z,8.05
2022-12-25T09:26:59.767Z,8.24
2022-12-25T09:29:30.473Z,8.24
2022-12-25T09:32:01.760Z,8.32
2022-12-25T09:34:35.218Z,8.50
2022-12-25T09:37:06.677Z,8.42
2022-12-25T09:39:43.851Z,8.37
2022-12-25T09:42:22.143Z,8.62
2022-12-25T09:44:58.969Z,8.70
2022-12-25T09:47:32.607Z,8.85
2022-12-25T09:50:10.099Z,8.85
2022-12-25T09:52:46.862Z,8.85
2022-12-25T09:55:20.659Z,8.99
2022-12-25T09:57:53.584Z,9.03
2022-12-25T10:00:27.867Z,8.96
2022-12-25T10:03:19.079Z,8.89
2022-12-25T10:06:15.757Z,8.78
2022-12-25T10:09:04.088Z,8.77
2022-12-25T10:11:48.957Z,8.68
2022-12-25T10:14:32.260Z,8.51
2022-12-25T10:17:16.892Z,8.55
2022-12-25T10:19:56.884Z,8.44
2022-12-25T10:22:37.509Z,8.38
2022-12-25T10:25:09.848Z,8.42
2022-12-25T10:27:43.761Z,8.47
2022-12-25T10:30:20.676Z,8.59
2022-12-25T10:32:51.742Z,8.68
2022-12-25T10:35:24.140Z,8.79
2022-12-25T10:38:02.548Z,8.87
2022-12-25T10:40:43.812Z,9.07
2022-12-25T10:43:20.735Z,9.15
2022-12-25T10:45:52.788Z,9.30
2022-12-25T10:48:27.285Z,9.36
2022-12-25T10:50:57.884Z,9.40
2022-12-25T10:53:32.254Z,9.51
2022-12-25T10:56:04.621Z,9.56
2022-12-25T10:58:36.178Z,9.55
2022-12-25T11:01:09.111Z,9.67
2022-12-25T11:03:41.709Z,9.73
2022-12-25T11:06:26.037Z,9.72
2022-12-25T11:09:01.374Z,9.86
2022-12-25T11:11:32.904Z,9.97
2022-12-25T11:14:05.702Z,10.14
2022-12-25T11:16:38.869Z,10.35
2022-12-25T11:19:27.444Z,10.51
2022-12-25T11:21:59.741Z,10.59
2022-12-25T11:24:35.272Z,10.68
2022-12-25T11:27:09.154Z,10.74
2022-12-25T11:29:45.259Z,10.79
2022-12-25T11:32:22.178Z,10.98
2022-12-25T11:34:53.949Z,11.16
2022-12-25T11:37:30.968Z,11.21
2022-12-25T11:40:03.856Z,11.16
2022-12-25T11:42:38.380Z,11.22
2022-12-25T11:45:14.036Z,11.27
2022-12-25T11:47:48.101Z,11.23
2022-12-25T11:50:25.972Z,11.28
2022-12-25T11:52:58.078Z,11.34
2022-12-25T11:55:38.540Z,11.39
2022-12-25T11:58:17.544Z,11.34
2022-12-25T12:00:51.013Z,11.27
2022-12-25T12:03:25.889Z,11.39
2022-12-25T12:06:00.111Z,11.38
2022-12-25T12:08:32.136Z,11.24
2022-12-25T12:11:20.697Z,11.17
2022-12-25T12:14:15.378Z,11.15
2022-12-25T12:16:45.993Z,11.16
2022-12-25T12:19:27.470Z,11.17
2022-12-25T12:22:00.207Z,11.08
2022-12-25T12:24:36.548Z,11.04
2022-12-25T12:27:22.645Z,11.10
2022-12-25T12:29:55.167Z,11.18
2022-12-25T12:32:41.892Z,11.13
2022-12-25T12:35:20.332Z,11.11
2022-12-25T12:37:54.630Z,11.13
2022-12-25T12:40:28.538Z,11.04
2022-12-25T12:43:01.760Z,10.99
2022-12-25T12:45:36.295Z,11.05
2022-12-25T12:48:17.577Z,10.95
2022-12-25T12:50:47.698Z,11.01
2022-12-25T12:53:31.219Z,10.98
2022-12-25T12:56:12.560Z,10.84
2022-12-25T12:58:50.160Z,10.76
2022-12-25T13:01:42.859Z,10.84
2022-12-25T13:04:42.808Z,10.87
2022-12-25T13:07:44.036Z,10.84
2022-12-25T13:10:26.511Z,10.91
2022-12-25T13:13:03.543Z,10.79
2022-12-25T13:15:38.656Z,10.72
2022-12-25T13:18:15.657Z,10.67
2022-12-25T13:20:55.043Z,10.57
2022-12-25T13:23:30.768Z,10.57
2022-12-25T13:26:02.925Z,10.52
2022-12-25T13:28:35.340Z,10.45
2022-12-25T13:31:15.646Z,10.44
2022-12-25T13:33:49.911Z,10.40
2022-12-25T13:36:20.356Z,10.34
2022-12-25T13:38:53.609Z,10.35
2022-12-25T13:41:38.601Z,10.39
2022-12-25T13:44:19.369Z,10.43
2022-12-25T13:46:52.435Z,10.37
2022-12-25T13:49:25.072Z,10.33
2022-12-25T13:51:55.142Z,10.29
2022-12-25T13:54:26.976Z,10.21
2022-12-25T13:56:58.337Z,10.15
2022-12-25T13:59:28.885Z,10.06
2022-12-25T14:02:01.780Z,10.03
2022-12-25T14:04:31.994Z,9.96
2022-12-25T14:07:12.695Z,9.88
2022-12-25T14:09:43.245Z,9.77
2022-12-25T14:12:19.122Z,9.69
2022-12-25T14:14:50.443Z,9.59
2022-12-25T14:17:23.672Z,9.49
2022-12-25T14:20:08.020Z,9.48
2022-12-25T14:22:39.012Z,9.47
2022-12-25T14:25:18.204Z,9.39
2022-12-25T14:27:53.321Z,9.36
2022-12-25T14:30:26.731Z,9.29
2022-12-25T14:33:00.110Z,9.27
2022-12-25T14:35:30.249Z,9.34
2022-12-25T14:38:02.875Z,9.39
2022-12-25T14:40:36.164Z,9.40
2022-12-25T14:43:08.365Z,9.38
2022-12-25T14:45:40.932Z,9.39
2022-12-25T14:48:25.631Z,9.33
2022-12-25T14:51:02.098Z,9.41
2022-12-25T14:53:38.801Z,9.57
2022-12-25T14:56:11.331Z,9.51
2022-12-25T14:58:50.050Z,9.42
2022-12-25T15:01:25.094Z,9.33
2022-12-25T15:04:07.713Z,9.40
2022-12-25T15:06:37.939Z,9.41
2022-12-25T15:09:16.658Z,9.44
2022-12-25T15:11:50.037Z,9.46
2022-12-25T15:14:20.465Z,9.45
2022-12-25T15:16:53.014Z,9.44
2022-12-25T15:19:36.630Z,9.41
2022-12-25T15:22:07.716Z,9.42
2022-12-25T15:24:37.770Z,9.44
2022-12-25T15:27:08.989Z,9.45
2022-12-25T15:30:08.646Z,9.42
2022-12-25T15:32:29.129Z,9.43
2022-12-25T15:35:01.851Z,9.47
2022-12-25T15:37:31.929Z,9.48
2022-12-25T15:40:02.327Z,9.47
2022-12-25T15:42:33.221Z,9.45
2022-12-25T15:45:03.658Z,9.45
2022-12-25T15:47:33.702Z,9.42
2022-12-25T15:50:06.665Z,9.38
2022-12-25T15:52:36.773Z,9.43
2022-12-25T15:55:07.701Z,9.52
2022-12-25T15:57:43.279Z,9.51
2022-12-25T16:00:20.109Z,9.57
2022-12-25T16:02:50.438Z,9.54
2022-12-25T16:05:24.502Z,9.46
2022-12-25T16:07:54.767Z,9.58
2022-12-25T16:10:24.854Z,9.49
2022-12-25T16:12:55.086Z,9.56
2022-12-25T16:15:25.449Z,9.50
2022-12-25T16:17:55.522Z,9.52
2022-12-25T16:20:28.226Z,9.50
2022-12-25T16:22:58.555Z,9.52
2022-12-25T16:25:29.610Z,9.54
2022-12-25T16:27:59.752Z,9.54
2022-12-25T16:30:32.072Z,9.55
2022-12-25T16:33:02.234Z,9.56
2022-12-25T16:35:35.733Z,9.47
2022-12-25T16:38:05.941Z,9.44
2022-12-25T16:40:36.139Z,9.40
2022-12-25T16:43:06.323Z,9.38
2022-12-25T16:45:41.299Z,9.28
2022-12-25T16:48:15.717Z,9.33
2022-12-25T16:50:48.431Z,9.26
2022-12-25T16:53:18.476Z,9.27
2022-12-25T16:55:48.547Z,9.40
2022-12-25T16:58:18.644Z,9.40
2022-12-25T17:00:49.569Z,9.43
2022-12-25T17:03:20.352Z,9.43
2022-12-25T17:05:53.209Z,9.43
2022-12-25T17:08:23.253Z,9.37
2022-12-25T17:10:53.625Z,9.29
2022-12-25T17:13:23.862Z,9.32
2022-12-25T17:15:58.215Z,9.25
2022-12-25T17:18:28.453Z,9.28
2022-12-25T17:21:01.070Z,9.27
2022-12-25T17:23:31.139Z,9.28
2022-12-25T17:26:03.476Z,9.26
2022-12-25T17:28:33.922Z,9.25
2022-12-25T17:31:06.211Z,9.16
2022-12-25T17:33:39.975Z,9.07
2022-12-25T17:36:15.709Z,9.01
2022-12-25T17:38:46.542Z,8.97
2022-12-25T17:41:18.666Z,8.96
2022-12-25T17:43:49.388Z,8.88
2022-12-25T17:46:21.298Z,8.81
2022-12-25T17:48:52.898Z,8.78
2022-12-25T17:51:27.723Z,8.88
2022-12-25T17:54:00.414Z,8.94
2022-12-25T17:56:34.784Z,8.81
2022-12-25T17:59:08.594Z,8.78
2022-12-25T18:01:39.221Z,8.68
2022-12-25T18:04:09.899Z,8.73
2022-12-25T18:06:42.598Z,8.66
2022-12-25T18:09:16.161Z,8.76
2022-12-25T18:11:46.534Z,8.65
2022-12-25T18:14:19.641Z,8.73
2022-12-25T18:16:50.386Z,8.61
2022-12-25T18:19:21.376Z,8.67
2022-12-25T18:21:55.580Z,8.60
2022-12-25T18:24:25.667Z,8.62
2022-12-25T18:26:56.110Z,8.65
2022-12-25T18:29:26.426Z,8.74
2022-12-25T18:31:56.558Z,8.65
2022-12-25T18:34:34.474Z,8.70
2022-12-25T18:37:07.831Z,8.71
2022-12-25T18:39:40.284Z,8.74
2022-12-25T18:42:22.633Z,8.82
2022-12-25T18:44:52.786Z,8.95
2022-12-25T18:47:23.110Z,8.94
2022-12-25T18:49:53.510Z,8.98
2022-12-25T18:52:50.129Z,8.94
2022-12-25T18:55:18.016Z,8.89
2022-12-25T18:57:48.169Z,8.87
2022-12-25T19:00:19.212Z,8.93
2022-12-25T19:02:49.624Z,8.89
2022-12-25T19:05:20.440Z,8.88
2022-12-25T19:07:53.539Z,8.89
2022-12-25T19:10:23.833Z,8.78
2022-12-25T19:12:54.208Z,8.79
2022-12-25T19:15:24.662Z,8.76
2022-12-25T19:17:55.816Z,8.72
2022-12-25T19:20:25.917Z,8.75
2022-12-25T19:22:58.951Z,8.76
2022-12-25T19:25:29.020Z,8.77
2022-12-25T19:27:59.138Z,8.75
2022-12-25T19:30:29.783Z,8.77
2022-12-25T19:33:00.034Z,8.83
2022-12-25T19:35:30.146Z,8.81
2022-12-25T19:38:02.986Z,8.77
2022-12-25T19:40:33.341Z,8.78
2022-12-25T19:43:03.695Z,8.75
2022-12-25T19:45:37.660Z,8.75
2022-12-25T19:48:08.865Z,8.71
2022-12-25T19:50:39.046Z,8.67
2022-12-25T19:53:11.680Z,8.64
2022-12-25T19:55:41.841Z,8.60
2022-12-25T19:58:12.179Z,8.59
2022-12-25T20:00:43.070Z,8.56
2022-12-25T20:03:13.429Z,8.58
2022-12-25T20:05:47.305Z,8.62
2022-12-25T20:08:26.868Z,8.56
2022-12-25T20:11:00.159Z,8.64
2022-12-25T20:13:30.253Z,8.62
2022-12-25T20:16:04.826Z,8.62
2022-12-25T20:18:51.328Z,8.67
2022-12-25T20:24:26.403Z,8.63
2022-12-25T20:26:59.597Z,8.67
2022-12-25T20:29:29.734Z,8.69
2022-12-25T20:39:49.076Z,8.68
2022-12-25T20:42:19.663Z,8.65
2022-12-25T20:44:49.921Z,8.67
2022-12-25T20:47:20.862Z,8.65
2022-12-25T20:49:51.128Z,8.75
2022-12-25T20:52:21.747Z,8.68
2022-12-25T20:54:54.569Z,8.71
2022-12-25T20:57:24.735Z,8.61
2022-12-25T20:59:55.029Z,8.62
2022-12-25T21:02:35.608Z,8.60
2022-12-25T21:05:08.088Z,8.57
2022-12-25T21:07:38.401Z,8.62
2022-12-25T21:10:12.685Z,8.60
2022-12-25T21:12:43.453Z,8.55
2022-12-25T21:15:15.919Z,8.55
2022-12-25T21:17:46.235Z,8.62
2022-12-25T21:20:18.044Z,8.68
2022-12-25T21:22:48.326Z,8.68
2022-12-25T21:25:21.608Z,8.69
2022-12-25T21:27:51.738Z,8.81
2022-12-25T21:30:21.865Z,8.85
2022-12-25T21:33:05.122Z,8.79
2022-12-25T21:35:39.397Z,8.79
2022-12-25T21:38:09.935Z,8.83
2022-12-25T21:40:43.038Z,8.78
2022-12-25T21:43:16.382Z,8.71
2022-12-25T21:45:54.324Z,8.74
2022-12-25T21:48:24.408Z,8.78
2022-12-25T21:51:06.829Z,8.76
2022-12-25T21:53:36.989Z,8.74
2022-12-25T21:56:10.237Z,8.71
2022-12-25T21:58:40.464Z,8.71
2022-12-25T22:01:10.992Z,8.74
2022-12-25T22:03:43.028Z,8.80
2022-12-25T22:06:25.936Z,8.82
2022-12-25T22:08:57.202Z,8.84
2022-12-25T22:11:42.622Z,8.86
2022-12-25T22:14:52.003Z,8.97
2022-12-25T22:17:36.141Z,8.95
2022-12-25T22:20:06.509Z,8.89
2022-12-25T22:22:37.179Z,8.84
2022-12-25T22:25:09.444Z,8.79
2022-12-25T22:27:44.972Z,8.74
2022-12-25T22:30:17.336Z,8.71
2022-12-25T22:32:47.462Z,8.66
2022-12-25T22:35:19.917Z,8.65
2022-12-25T22:37:50.883Z,8.61
2022-12-25T22:40:22.519Z,8.65
2022-12-25T22:42:57.717Z,8.63
2022-12-25T22:45:28.432Z,8.59
2022-12-25T22:47:58.616Z,8.55
2022-12-25T22:50:28.667Z,8.52
2022-12-25T22:52:58.741Z,8.58
2022-12-25T22:55:28.856Z,8.56
2022-12-25T22:58:02.656Z,8.57
2022-12-25T23:00:45.886Z,8.51
2022-12-25T23:03:18.077Z,8.53
2022-12-25T23:05:48.362Z,8.48
2022-12-25T23:08:19.061Z,8.45
2022-12-25T23:10:49.143Z,8.48
2022-12-25T23:13:34.874Z,8.46
2022-12-25T23:16:05.606Z,8.48
2022-12-25T23:18:48.103Z,8.45
2022-12-25T23:21:32.982Z,8.49
2022-12-25T23:24:15.780Z,8.50
2022-12-25T23:26:47.001Z,8.44
2022-12-25T23:29:34.174Z,8.42
2022-12-25T23:32:05.046Z,8.43
2022-12-25T23:34:36.537Z,8.40
2022-12-25T23:37:07.120Z,8.40
2022-12-25T23:39:37.762Z,8.38
2022-12-25T23:42:08.151Z,8.39
2022-12-25T23:44:41.607Z,8.37
2022-12-25T23:47:11.944Z,8.32
2022-12-25T23:49:42.841Z,8.29
2022-12-25T23:52:15.272Z,8.26
2022-12-25T23:54:45.335Z,8.22
2022-12-25T23:57:15.425Z,8.08
2022-12-25T23:59:48.433Z,7.99
